Terminal Aerodrome Forecast
Issued by NWS

Home | Current Version | Previous Version | Text Only | Print | Product List | Glossary On
Versions: 1 2 3 4 5 6 7 8 9 10 11 12 13 14
000
FTUS45 KSLC 121131
TAFLGU
TAF
KLGU 121131Z 1212/1312 00000KT 1/4SM FZFG OVC002
     FM121900 00000KT 2SM BR SKC
     FM130400 00000KT 1/2SM FZFG OVC002=

USA.gov is the U.S. government's official web portal to all federal, state and local government web resources and services.